sensor_id;sensor_type;location;lat;lon;timestamp;P1;durP1;ratioP1;P2;durP2;ratioP2
74867;SDS011;63419;42.262;12.210;2023-05-02T00:04:47;6.95;;;2.13;;
74867;SDS011;63419;42.262;12.210;2023-05-02T00:07:14;5.75;;;2.63;;
74867;SDS011;63419;42.262;12.210;2023-05-02T00:09:41;6.75;;;2.50;;
74867;SDS011;63419;42.262;12.210;2023-05-02T00:12:08;4.80;;;2.17;;
74867;SDS011;63419;42.262;12.210;2023-05-02T00:14:35;5.60;;;2.10;;
74867;SDS011;63419;42.262;12.210;2023-05-02T00:17:02;4.63;;;1.98;;
74867;SDS011;63419;42.262;12.210;2023-05-02T00:19:29;5.25;;;2.00;;
74867;SDS011;63419;42.262;12.210;2023-05-02T00:21:56;5.93;;;2.10;;
74867;SDS011;63419;42.262;12.210;2023-05-02T00:24:23;6.03;;;2.67;;
74867;SDS011;63419;42.262;12.210;2023-05-02T00:26:50;7.30;;;2.45;;
74867;SDS011;63419;42.262;12.210;2023-05-02T00:29:17;6.18;;;2.67;;
74867;SDS011;63419;42.262;12.210;2023-05-02T00:31:44;7.55;;;2.58;;
74867;SDS011;63419;42.262;12.210;2023-05-02T00:34:11;5.78;;;2.50;;
74867;SDS011;63419;42.262;12.210;2023-05-02T00:36:38;6.47;;;2.40;;
74867;SDS011;63419;42.262;12.210;2023-05-02T00:39:05;6.90;;;2.90;;
74867;SDS011;63419;42.262;12.210;2023-05-02T00:41:33;6.30;;;2.53;;
74867;SDS011;63419;42.262;12.210;2023-05-02T00:44:00;7.07;;;3.10;;
74867;SDS011;63419;42.262;12.210;2023-05-02T00:46:27;6.47;;;2.65;;
74867;SDS011;63419;42.262;12.210;2023-05-02T00:48:55;6.70;;;2.67;;
74867;SDS011;63419;42.262;12.210;2023-05-02T00:51:22;7.68;;;3.03;;
74867;SDS011;63419;42.262;12.210;2023-05-02T00:53:49;7.13;;;3.05;;
74867;SDS011;63419;42.262;12.210;2023-05-02T00:56:16;8.13;;;2.92;;
74867;SDS011;63419;42.262;12.210;2023-05-02T00:58:43;6.22;;;2.60;;
74867;SDS011;63419;42.262;12.210;2023-05-02T01:10:00;6.65;;;2.55;;
74867;SDS011;63419;42.262;12.210;2023-05-02T01:12:37;5.78;;;2.58;;
74867;SDS011;63419;42.262;12.210;2023-05-02T01:15:11;6.43;;;2.72;;
74867;SDS011;63419;42.262;12.210;2023-05-02T01:17:43;7.18;;;3.10;;
74867;SDS011;63419;42.262;12.210;2023-05-02T01:20:12;6.38;;;2.83;;
74867;SDS011;63419;42.262;12.210;2023-05-02T01:22:44;6.13;;;2.55;;
74867;SDS011;63419;42.262;12.210;2023-05-02T01:30:42;7.00;;;2.97;;
74867;SDS011;63419;42.262;12.210;2023-05-02T01:33:12;7.30;;;3.33;;
74867;SDS011;63419;42.262;12.210;2023-05-02T01:35:42;6.95;;;2.95;;
74867;SDS011;63419;42.262;12.210;2023-05-02T01:38:14;6.90;;;2.25;;
74867;SDS011;63419;42.262;12.210;2023-05-02T01:40:44;7.50;;;3.13;;
74867;SDS011;63419;42.262;12.210;2023-05-02T01:43:13;6.47;;;2.53;;
74867;SDS011;63419;42.262;12.210;2023-05-02T01:45:42;4.18;;;1.65;;
74867;SDS011;63419;42.262;12.210;2023-05-02T01:48:12;6.60;;;1.80;;
74867;SDS011;63419;42.262;12.210;2023-05-02T01:50:42;5.60;;;1.75;;
74867;SDS011;63419;42.262;12.210;2023-05-02T01:53:11;5.28;;;1.42;;
74867;SDS011;63419;42.262;12.210;2023-05-02T01:55:40;4.68;;;1.35;;
74867;SDS011;63419;42.262;12.210;2023-05-02T01:58:10;5.10;;;1.70;;
74867;SDS011;63419;42.262;12.210;2023-05-02T02:00:39;4.97;;;1.40;;
74867;SDS011;63419;42.262;12.210;2023-05-02T02:03:07;4.75;;;1.65;;
74867;SDS011;63419;42.262;12.210;2023-05-02T02:05:35;51.80;;;4.53;;
74867;SDS011;63419;42.262;12.210;2023-05-02T02:08:05;8.90;;;2.80;;
74867;SDS011;63419;42.262;12.210;2023-05-02T02:10:34;6.80;;;2.35;;
74867;SDS011;63419;42.262;12.210;2023-05-02T02:13:06;5.15;;;1.77;;
74867;SDS011;63419;42.262;12.210;2023-05-02T02:15:42;5.45;;;1.77;;
74867;SDS011;63419;42.262;12.210;2023-05-02T02:18:19;6.88;;;3.08;;
74867;SDS011;63419;42.262;12.210;2023-05-02T02:20:48;5.88;;;2.20;;
74867;SDS011;63419;42.262;12.210;2023-05-02T02:23:17;5.95;;;2.25;;
74867;SDS011;63419;42.262;12.210;2023-05-02T02:25:47;6.53;;;2.97;;
74867;SDS011;63419;42.262;12.210;2023-05-02T02:28:16;7.03;;;2.42;;
74867;SDS011;63419;42.262;12.210;2023-05-02T02:30:43;6.90;;;2.75;;
74867;SDS011;63419;42.262;12.210;2023-05-02T02:33:10;6.07;;;2.67;;
74867;SDS011;63419;42.262;12.210;2023-05-02T02:35:39;8.05;;;3.13;;
74867;SDS011;63419;42.262;12.210;2023-05-02T02:38:15;7.70;;;3.28;;
74867;SDS011;63419;42.262;12.210;2023-05-02T02:41:00;6.95;;;3.00;;
74867;SDS011;63419;42.262;12.210;2023-05-02T02:54:59;8.40;;;3.25;;
74867;SDS011;63419;42.262;12.210;2023-05-02T02:57:38;7.38;;;3.10;;
74867;SDS011;63419;42.262;12.210;2023-05-02T03:00:19;7.80;;;2.90;;
74867;SDS011;63419;42.262;12.210;2023-05-02T03:02:50;7.72;;;3.42;;
74867;SDS011;63419;42.262;12.210;2023-05-02T03:05:20;7.15;;;3.30;;
74867;SDS011;63419;42.262;12.210;2023-05-02T03:07:48;8.05;;;3.35;;
74867;SDS011;63419;42.262;12.210;2023-05-02T03:10:16;6.75;;;2.92;;
74867;SDS011;63419;42.262;12.210;2023-05-02T03:12:43;6.65;;;2.70;;
74867;SDS011;63419;42.262;12.210;2023-05-02T03:17:58;10.00;;;3.00;;
74867;SDS011;63419;42.262;12.210;2023-05-02T03:20:26;7.63;;;2.47;;
74867;SDS011;63419;42.262;12.210;2023-05-02T03:22:53;7.20;;;2.85;;
74867;SDS011;63419;42.262;12.210;2023-05-02T03:25:20;6.35;;;2.55;;
74867;SDS011;63419;42.262;12.210;2023-05-02T03:27:47;6.22;;;2.08;;
74867;SDS011;63419;42.262;12.210;2023-05-02T03:32:41;5.72;;;2.15;;
74867;SDS011;63419;42.262;12.210;2023-05-02T03:35:08;7.63;;;2.95;;
74867;SDS011;63419;42.262;12.210;2023-05-02T03:37:35;6.13;;;2.35;;
74867;SDS011;63419;42.262;12.210;2023-05-02T03:40:02;5.57;;;2.15;;
74867;SDS011;63419;42.262;12.210;2023-05-02T03:44:57;5.88;;;2.30;;
74867;SDS011;63419;42.262;12.210;2023-05-02T03:47:24;5.72;;;2.28;;
74867;SDS011;63419;42.262;12.210;2023-05-02T03:49:51;5.65;;;1.95;;
74867;SDS011;63419;42.262;12.210;2023-05-02T03:52:18;5.47;;;2.60;;
74867;SDS011;63419;42.262;12.210;2023-05-02T03:54:45;5.32;;;2.10;;
74867;SDS011;63419;42.262;12.210;2023-05-02T03:57:12;6.10;;;1.95;;
74867;SDS011;63419;42.262;12.210;2023-05-02T03:59:39;4.80;;;1.88;;
74867;SDS011;63419;42.262;12.210;2023-05-02T04:02:08;6.50;;;2.05;;
74867;SDS011;63419;42.262;12.210;2023-05-02T04:04:36;6.53;;;1.67;;
74867;SDS011;63419;42.262;12.210;2023-05-02T04:09:33;4.43;;;1.30;;
74867;SDS011;63419;42.262;12.210;2023-05-02T04:12:00;5.05;;;1.55;;
74867;SDS011;63419;42.262;12.210;2023-05-02T04:14:27;4.15;;;1.65;;
74867;SDS011;63419;42.262;12.210;2023-05-02T04:16:54;4.18;;;1.60;;
74867;SDS011;63419;42.262;12.210;2023-05-02T04:19:21;5.95;;;1.85;;
74867;SDS011;63419;42.262;12.210;2023-05-02T04:21:48;5.00;;;1.98;;
74867;SDS011;63419;42.262;12.210;2023-05-02T04:24:15;5.40;;;2.08;;
74867;SDS011;63419;42.262;12.210;2023-05-02T04:26:42;6.43;;;2.42;;
74867;SDS011;63419;42.262;12.210;2023-05-02T04:29:09;4.85;;;2.17;;
74867;SDS011;63419;42.262;12.210;2023-05-02T04:31:36;5.40;;;1.88;;
74867;SDS011;63419;42.262;12.210;2023-05-02T04:34:03;6.00;;;2.22;;
74867;SDS011;63419;42.262;12.210;2023-05-02T04:36:30;5.65;;;1.90;;
74867;SDS011;63419;42.262;12.210;2023-05-02T04:38:57;5.18;;;1.75;;
74867;SDS011;63419;42.262;12.210;2023-05-02T04:41:24;5.28;;;1.67;;
74867;SDS011;63419;42.262;12.210;2023-05-02T04:46:18;4.53;;;1.42;;
74867;SDS011;63419;42.262;12.210;2023-05-02T04:48:45;4.65;;;1.58;;
74867;SDS011;63419;42.262;12.210;2023-05-02T04:53:42;4.50;;;1.40;;
74867;SDS011;63419;42.262;12.210;2023-05-02T04:56:08;3.40;;;1.00;;
74867;SDS011;63419;42.262;12.210;2023-05-02T04:58:36;4.20;;;1.33;;
74867;SDS011;63419;42.262;12.210;2023-05-02T05:01:03;5.13;;;1.40;;
74867;SDS011;63419;42.262;12.210;2023-05-02T05:03:30;5.05;;;1.50;;
74867;SDS011;63419;42.262;12.210;2023-05-02T05:05:58;4.40;;;1.60;;
74867;SDS011;63419;42.262;12.210;2023-05-02T05:08:26;6.18;;;1.95;;
74867;SDS011;63419;42.262;12.210;2023-05-02T05:10:53;4.65;;;1.33;;
74867;SDS011;63419;42.262;12.210;2023-05-02T05:13:20;5.55;;;1.27;;
74867;SDS011;63419;42.262;12.210;2023-05-02T05:15:47;5.38;;;1.80;;
74867;SDS011;63419;42.262;12.210;2023-05-02T05:18:14;5.32;;;1.80;;
74867;SDS011;63419;42.262;12.210;2023-05-02T05:23:08;4.05;;;1.40;;
74867;SDS011;63419;42.262;12.210;2023-05-02T05:25:35;3.92;;;1.30;;
74867;SDS011;63419;42.262;12.210;2023-05-02T05:28:02;4.32;;;1.17;;
74867;SDS011;63419;42.262;12.210;2023-05-02T05:30:29;5.13;;;1.90;;
74867;SDS011;63419;42.262;12.210;2023-05-02T05:32:56;5.53;;;1.70;;
74867;SDS011;63419;42.262;12.210;2023-05-02T05:35:24;3.85;;;1.17;;
74867;SDS011;63419;42.262;12.210;2023-05-02T05:37:51;4.03;;;1.45;;
74867;SDS011;63419;42.262;12.210;2023-05-02T05:42:46;5.38;;;1.50;;
74867;SDS011;63419;42.262;12.210;2023-05-02T05:45:13;4.40;;;1.15;;
74867;SDS011;63419;42.262;12.210;2023-05-02T05:47:42;4.63;;;1.40;;
74867;SDS011;63419;42.262;12.210;2023-05-02T05:50:09;4.95;;;1.80;;
74867;SDS011;63419;42.262;12.210;2023-05-02T05:55:04;6.65;;;2.30;;
74867;SDS011;63419;42.262;12.210;2023-05-02T05:57:32;5.68;;;2.33;;
74867;SDS011;63419;42.262;12.210;2023-05-02T06:02:26;5.72;;;2.08;;
74867;SDS011;63419;42.262;12.210;2023-05-02T06:04:53;6.95;;;2.50;;
74867;SDS011;63419;42.262;12.210;2023-05-02T06:07:20;5.75;;;2.40;;
74867;SDS011;63419;42.262;12.210;2023-05-02T06:09:48;6.15;;;2.30;;
74867;SDS011;63419;42.262;12.210;2023-05-02T06:12:15;6.38;;;2.72;;
74867;SDS011;63419;42.262;12.210;2023-05-02T06:14:42;7.20;;;2.63;;
74867;SDS011;63419;42.262;12.210;2023-05-02T06:17:09;7.72;;;2.90;;
74867;SDS011;63419;42.262;12.210;2023-05-02T06:19:36;7.28;;;3.03;;
74867;SDS011;63419;42.262;12.210;2023-05-02T06:22:03;7.18;;;3.05;;
74867;SDS011;63419;42.262;12.210;2023-05-02T06:24:30;7.53;;;2.65;;
74867;SDS011;63419;42.262;12.210;2023-05-02T06:26:57;6.05;;;2.80;;
74867;SDS011;63419;42.262;12.210;2023-05-02T06:29:25;5.05;;;2.17;;
74867;SDS011;63419;42.262;12.210;2023-05-02T06:31:53;5.75;;;2.25;;
74867;SDS011;63419;42.262;12.210;2023-05-02T06:34:21;5.53;;;2.00;;
74867;SDS011;63419;42.262;12.210;2023-05-02T06:36:52;6.53;;;2.15;;
74867;SDS011;63419;42.262;12.210;2023-05-02T06:39:23;4.90;;;1.55;;
74867;SDS011;63419;42.262;12.210;2023-05-02T06:41:50;5.30;;;1.77;;
74867;SDS011;63419;42.262;12.210;2023-05-02T06:44:21;4.68;;;1.90;;
74867;SDS011;63419;42.262;12.210;2023-05-02T06:46:48;4.40;;;1.80;;
74867;SDS011;63419;42.262;12.210;2023-05-02T06:51:42;4.25;;;1.42;;
74867;SDS011;63419;42.262;12.210;2023-05-02T06:54:09;5.07;;;1.77;;
74867;SDS011;63419;42.262;12.210;2023-05-02T06:56:36;4.28;;;1.50;;
74867;SDS011;63419;42.262;12.210;2023-05-02T06:59:03;5.18;;;1.73;;
74867;SDS011;63419;42.262;12.210;2023-05-02T07:01:30;3.90;;;1.42;;
74867;SDS011;63419;42.262;12.210;2023-05-02T07:03:58;4.32;;;1.50;;
74867;SDS011;63419;42.262;12.210;2023-05-02T07:06:26;3.53;;;1.02;;
74867;SDS011;63419;42.262;12.210;2023-05-02T07:08:54;4.10;;;1.30;;
74867;SDS011;63419;42.262;12.210;2023-05-02T07:11:21;7.15;;;1.75;;
74867;SDS011;63419;42.262;12.210;2023-05-02T07:13:49;5.30;;;1.65;;
74867;SDS011;63419;42.262;12.210;2023-05-02T07:18:44;6.22;;;2.72;;
74867;SDS011;63419;42.262;12.210;2023-05-02T07:21:11;5.53;;;2.30;;
74867;SDS011;63419;42.262;12.210;2023-05-02T07:26:05;7.78;;;2.20;;
74867;SDS011;63419;42.262;12.210;2023-05-02T07:28:33;5.55;;;2.40;;
74867;SDS011;63419;42.262;12.210;2023-05-02T07:31:00;6.05;;;2.33;;
74867;SDS011;63419;42.262;12.210;2023-05-02T07:33:27;5.15;;;2.03;;
74867;SDS011;63419;42.262;12.210;2023-05-02T07:38:21;5.28;;;2.17;;
74867;SDS011;63419;42.262;12.210;2023-05-02T07:40:48;4.57;;;1.83;;
74867;SDS011;63419;42.262;12.210;2023-05-02T07:43:15;5.43;;;1.60;;
74867;SDS011;63419;42.262;12.210;2023-05-02T07:45:42;7.20;;;1.42;;
74867;SDS011;63419;42.262;12.210;2023-05-02T07:48:09;4.80;;;1.80;;
74867;SDS011;63419;42.262;12.210;2023-05-02T07:50:36;4.75;;;1.10;;
74867;SDS011;63419;42.262;12.210;2023-05-02T07:53:03;5.10;;;1.65;;
74867;SDS011;63419;42.262;12.210;2023-05-02T07:55:30;3.45;;;1.10;;
74867;SDS011;63419;42.262;12.210;2023-05-02T07:57:58;2.97;;;0.82;;
74867;SDS011;63419;42.262;12.210;2023-05-02T08:00:25;5.07;;;0.80;;
74867;SDS011;63419;42.262;12.210;2023-05-02T08:02:53;2.58;;;0.70;;
74867;SDS011;63419;42.262;12.210;2023-05-02T08:05:20;4.15;;;0.73;;
74867;SDS011;63419;42.262;12.210;2023-05-02T08:07:47;4.03;;;0.70;;
74867;SDS011;63419;42.262;12.210;2023-05-02T08:10:14;3.38;;;0.75;;
74867;SDS011;63419;42.262;12.210;2023-05-02T08:15:09;3.60;;;0.82;;
74867;SDS011;63419;42.262;12.210;2023-05-02T08:17:38;2.88;;;0.80;;
74867;SDS011;63419;42.262;12.210;2023-05-02T08:22:33;3.63;;;0.63;;
74867;SDS011;63419;42.262;12.210;2023-05-02T08:25:00;3.72;;;0.90;;
74867;SDS011;63419;42.262;12.210;2023-05-02T08:27:27;3.85;;;1.02;;
74867;SDS011;63419;42.262;12.210;2023-05-02T08:29:56;3.65;;;1.00;;
74867;SDS011;63419;42.262;12.210;2023-05-02T08:32:26;3.53;;;0.95;;
74867;SDS011;63419;42.262;12.210;2023-05-02T08:34:53;3.42;;;0.88;;
74867;SDS011;63419;42.262;12.210;2023-05-02T08:37:22;2.38;;;0.63;;
74867;SDS011;63419;42.262;12.210;2023-05-02T08:42:15;2.80;;;0.60;;
74867;SDS011;63419;42.262;12.210;2023-05-02T08:44:43;3.78;;;0.80;;
74867;SDS011;63419;42.262;12.210;2023-05-02T08:47:10;4.63;;;0.80;;
74867;SDS011;63419;42.262;12.210;2023-05-02T08:49:40;3.70;;;0.82;;
74867;SDS011;63419;42.262;12.210;2023-05-02T08:52:08;6.45;;;1.63;;
74867;SDS011;63419;42.262;12.210;2023-05-02T08:54:37;5.15;;;1.42;;
74867;SDS011;63419;42.262;12.210;2023-05-02T08:57:05;5.85;;;2.15;;
74867;SDS011;63419;42.262;12.210;2023-05-02T08:59:32;6.88;;;2.20;;
74867;SDS011;63419;42.262;12.210;2023-05-02T09:02:11;5.28;;;2.22;;
74867;SDS011;63419;42.262;12.210;2023-05-02T09:04:49;4.22;;;1.27;;
74867;SDS011;63419;42.262;12.210;2023-05-02T09:07:20;3.60;;;0.98;;
74867;SDS011;63419;42.262;12.210;2023-05-02T09:09:47;4.95;;;1.48;;
74867;SDS011;63419;42.262;12.210;2023-05-02T09:12:15;6.05;;;1.30;;
74867;SDS011;63419;42.262;12.210;2023-05-02T09:14:42;4.18;;;1.42;;
74867;SDS011;63419;42.262;12.210;2023-05-02T09:17:10;4.90;;;1.40;;
74867;SDS011;63419;42.262;12.210;2023-05-02T09:22:04;5.18;;;1.40;;
74867;SDS011;63419;42.262;12.210;2023-05-02T09:24:31;4.07;;;1.33;;
74867;SDS011;63419;42.262;12.210;2023-05-02T09:27:02;4.90;;;1.45;;
74867;SDS011;63419;42.262;12.210;2023-05-02T09:29:31;5.40;;;1.83;;
74867;SDS011;63419;42.262;12.210;2023-05-02T09:32:04;5.43;;;1.10;;
74867;SDS011;63419;42.262;12.210;2023-05-02T09:34:32;3.92;;;1.13;;
74867;SDS011;63419;42.262;12.210;2023-05-02T09:36:59;4.25;;;1.20;;
74867;SDS011;63419;42.262;12.210;2023-05-02T09:39:29;4.03;;;1.45;;
74867;SDS011;63419;42.262;12.210;2023-05-02T09:41:57;9.30;;;1.80;;
74867;SDS011;63419;42.262;12.210;2023-05-02T09:44:25;5.75;;;1.40;;
74867;SDS011;63419;42.262;12.210;2023-05-02T09:46:54;4.50;;;1.30;;
74867;SDS011;63419;42.262;12.210;2023-05-02T09:49:41;4.13;;;1.30;;
74867;SDS011;63419;42.262;12.210;2023-05-02T09:52:11;4.68;;;1.52;;
74867;SDS011;63419;42.262;12.210;2023-05-02T09:54:43;5.22;;;1.60;;
74867;SDS011;63419;42.262;12.210;2023-05-02T09:57:12;5.07;;;1.38;;
74867;SDS011;63419;42.262;12.210;2023-05-02T09:59:39;4.22;;;1.48;;
74867;SDS011;63419;42.262;12.210;2023-05-02T10:02:07;4.43;;;1.63;;
74867;SDS011;63419;42.262;12.210;2023-05-02T10:04:37;5.18;;;1.60;;
74867;SDS011;63419;42.262;12.210;2023-05-02T10:07:05;5.18;;;1.70;;
74867;SDS011;63419;42.262;12.210;2023-05-02T10:09:36;6.25;;;1.52;;
74867;SDS011;63419;42.262;12.210;2023-05-02T10:12:10;5.72;;;1.88;;
74867;SDS011;63419;42.262;12.210;2023-05-02T10:14:40;4.93;;;1.52;;
74867;SDS011;63419;42.262;12.210;2023-05-02T10:17:34;4.70;;;1.70;;
74867;SDS011;63419;42.262;12.210;2023-05-02T10:20:07;4.90;;;1.70;;
74867;SDS011;63419;42.262;12.210;2023-05-02T10:22:41;5.00;;;1.67;;
74867;SDS011;63419;42.262;12.210;2023-05-02T10:25:10;4.47;;;1.42;;
74867;SDS011;63419;42.262;12.210;2023-05-02T10:27:38;4.05;;;1.27;;
74867;SDS011;63419;42.262;12.210;2023-05-02T10:30:06;3.97;;;1.10;;
74867;SDS011;63419;42.262;12.210;2023-05-02T10:32:35;4.18;;;1.30;;
74867;SDS011;63419;42.262;12.210;2023-05-02T10:35:04;3.72;;;0.93;;
74867;SDS011;63419;42.262;12.210;2023-05-02T10:37:32;3.70;;;1.10;;
74867;SDS011;63419;42.262;12.210;2023-05-02T10:40:02;5.15;;;1.10;;
74867;SDS011;63419;42.262;12.210;2023-05-02T10:42:34;5.05;;;1.13;;
74867;SDS011;63419;42.262;12.210;2023-05-02T10:47:36;4.68;;;1.13;;
74867;SDS011;63419;42.262;12.210;2023-05-02T10:50:03;4.10;;;0.88;;
74867;SDS011;63419;42.262;12.210;2023-05-02T10:52:31;4.00;;;1.00;;
74867;SDS011;63419;42.262;12.210;2023-05-02T10:55:13;4.65;;;1.23;;
74867;SDS011;63419;42.262;12.210;2023-05-02T11:02:53;2.63;;;0.70;;
74867;SDS011;63419;42.262;12.210;2023-05-02T11:05:20;2.97;;;0.70;;
74867;SDS011;63419;42.262;12.210;2023-05-02T11:07:48;3.17;;;0.70;;
74867;SDS011;63419;42.262;12.210;2023-05-02T11:15:10;3.65;;;0.88;;
74867;SDS011;63419;42.262;12.210;2023-05-02T11:20:28;3.97;;;1.20;;
74867;SDS011;63419;42.262;12.210;2023-05-02T11:22:58;3.13;;;0.80;;
74867;SDS011;63419;42.262;12.210;2023-05-02T11:25:48;2.88;;;0.63;;
74867;SDS011;63419;42.262;12.210;2023-05-02T11:31:06;6.97;;;2.80;;
74867;SDS011;63419;42.262;12.210;2023-05-02T11:33:35;3.85;;;0.70;;
74867;SDS011;63419;42.262;12.210;2023-05-02T11:36:02;4.32;;;1.23;;
74867;SDS011;63419;42.262;12.210;2023-05-02T11:41:04;2.55;;;0.65;;
74867;SDS011;63419;42.262;12.210;2023-05-02T11:43:31;2.55;;;0.63;;
74867;SDS011;63419;42.262;12.210;2023-05-02T11:45:58;3.40;;;1.10;;
74867;SDS011;63419;42.262;12.210;2023-05-02T11:48:27;4.53;;;0.73;;
74867;SDS011;63419;42.262;12.210;2023-05-02T11:50:57;2.40;;;0.45;;
74867;SDS011;63419;42.262;12.210;2023-05-02T11:53:30;2.50;;;0.60;;
74867;SDS011;63419;42.262;12.210;2023-05-02T11:56:02;2.38;;;0.60;;
74867;SDS011;63419;42.262;12.210;2023-05-02T11:58:30;2.65;;;0.60;;
74867;SDS011;63419;42.262;12.210;2023-05-02T12:01:14;4.43;;;0.80;;
74867;SDS011;63419;42.262;12.210;2023-05-02T12:03:43;3.25;;;0.82;;
74867;SDS011;63419;42.262;12.210;2023-05-02T12:06:12;4.45;;;0.77;;
74867;SDS011;63419;42.262;12.210;2023-05-02T12:08:42;3.22;;;0.75;;
74867;SDS011;63419;42.262;12.210;2023-05-02T12:11:13;3.63;;;0.80;;
74867;SDS011;63419;42.262;12.210;2023-05-02T12:13:45;3.17;;;0.73;;
74867;SDS011;63419;42.262;12.210;2023-05-02T12:16:13;4.50;;;0.88;;
74867;SDS011;63419;42.262;12.210;2023-05-02T12:18:41;4.25;;;0.95;;
74867;SDS011;63419;42.262;12.210;2023-05-02T12:21:08;4.03;;;1.00;;
74867;SDS011;63419;42.262;12.210;2023-05-02T12:28:57;5.68;;;1.15;;
74867;SDS011;63419;42.262;12.210;2023-05-02T12:33:53;5.53;;;1.80;;
74867;SDS011;63419;42.262;12.210;2023-05-02T12:36:23;6.95;;;2.88;;
74867;SDS011;63419;42.262;12.210;2023-05-02T12:38:51;5.57;;;2.28;;
74867;SDS011;63419;42.262;12.210;2023-05-02T12:41:30;5.90;;;2.00;;
74867;SDS011;63419;42.262;12.210;2023-05-02T12:43:59;7.10;;;1.63;;
74867;SDS011;63419;42.262;12.210;2023-05-02T12:46:26;4.03;;;1.27;;
74867;SDS011;63419;42.262;12.210;2023-05-02T12:49:01;3.97;;;1.25;;
74867;SDS011;63419;42.262;12.210;2023-05-02T12:51:29;3.33;;;0.85;;
74867;SDS011;63419;42.262;12.210;2023-05-02T12:53:58;4.20;;;1.15;;
74867;SDS011;63419;42.262;12.210;2023-05-02T12:56:25;3.67;;;1.05;;
74867;SDS011;63419;42.262;12.210;2023-05-02T12:58:58;4.55;;;1.48;;
74867;SDS011;63419;42.262;12.210;2023-05-02T13:01:26;3.50;;;1.02;;
74867;SDS011;63419;42.262;12.210;2023-05-02T13:03:54;3.53;;;1.00;;
74867;SDS011;63419;42.262;12.210;2023-05-02T13:06:21;3.13;;;0.70;;
74867;SDS011;63419;42.262;12.210;2023-05-02T13:08:49;4.10;;;0.93;;
74867;SDS011;63419;42.262;12.210;2023-05-02T13:11:16;3.10;;;0.80;;
74867;SDS011;63419;42.262;12.210;2023-05-02T13:13:43;4.85;;;0.75;;
74867;SDS011;63419;42.262;12.210;2023-05-02T13:16:10;3.58;;;1.13;;
74867;SDS011;63419;42.262;12.210;2023-05-02T13:18:37;3.05;;;0.82;;
74867;SDS011;63419;42.262;12.210;2023-05-02T13:21:04;3.38;;;0.93;;
74867;SDS011;63419;42.262;12.210;2023-05-02T13:25:58;5.00;;;1.30;;
74867;SDS011;63419;42.262;12.210;2023-05-02T13:28:26;4.03;;;1.40;;
74867;SDS011;63419;42.262;12.210;2023-05-02T13:30:54;4.43;;;1.38;;
74867;SDS011;63419;42.262;12.210;2023-05-02T13:33:21;4.95;;;1.52;;
74867;SDS011;63419;42.262;12.210;2023-05-02T13:35:48;4.90;;;1.42;;
74867;SDS011;63419;42.262;12.210;2023-05-02T13:38:15;4.28;;;1.25;;
74867;SDS011;63419;42.262;12.210;2023-05-02T13:43:09;5.18;;;1.20;;
74867;SDS011;63419;42.262;12.210;2023-05-02T13:48:04;5.10;;;1.55;;
74867;SDS011;63419;42.262;12.210;2023-05-02T13:50:31;4.60;;;1.35;;
74867;SDS011;63419;42.262;12.210;2023-05-02T13:53:02;4.05;;;1.00;;
74867;SDS011;63419;42.262;12.210;2023-05-02T13:55:29;5.53;;;1.17;;
74867;SDS011;63419;42.262;12.210;2023-05-02T14:00:23;5.28;;;1.83;;
74867;SDS011;63419;42.262;12.210;2023-05-02T14:05:18;5.57;;;2.45;;
74867;SDS011;63419;42.262;12.210;2023-05-02T14:07:45;4.80;;;1.90;;
74867;SDS011;63419;42.262;12.210;2023-05-02T14:10:12;6.53;;;2.47;;
74867;SDS011;63419;42.262;12.210;2023-05-02T14:12:39;5.95;;;2.40;;
74867;SDS011;63419;42.262;12.210;2023-05-02T14:17:34;4.60;;;1.63;;
74867;SDS011;63419;42.262;12.210;2023-05-02T14:20:01;4.03;;;1.35;;
74867;SDS011;63419;42.262;12.210;2023-05-02T14:22:28;4.80;;;1.48;;
74867;SDS011;63419;42.262;12.210;2023-05-02T14:24:56;5.55;;;1.92;;
74867;SDS011;63419;42.262;12.210;2023-05-02T14:27:23;5.30;;;2.00;;
74867;SDS011;63419;42.262;12.210;2023-05-02T14:29:51;5.55;;;1.88;;
74867;SDS011;63419;42.262;12.210;2023-05-02T14:32:18;7.32;;;1.60;;
74867;SDS011;63419;42.262;12.210;2023-05-02T14:34:45;10.13;;;1.73;;
74867;SDS011;63419;42.262;12.210;2023-05-02T14:39:39;5.90;;;1.52;;
74867;SDS011;63419;42.262;12.210;2023-05-02T14:42:08;5.05;;;1.17;;
74867;SDS011;63419;42.262;12.210;2023-05-02T14:44:35;5.43;;;1.92;;
74867;SDS011;63419;42.262;12.210;2023-05-02T14:47:02;4.25;;;1.40;;
74867;SDS011;63419;42.262;12.210;2023-05-02T14:49:30;3.70;;;1.30;;
74867;SDS011;63419;42.262;12.210;2023-05-02T14:51:57;4.72;;;1.90;;
74867;SDS011;63419;42.262;12.210;2023-05-02T14:54:27;6.03;;;2.40;;
74867;SDS011;63419;42.262;12.210;2023-05-02T14:59:27;20.30;;;3.28;;
74867;SDS011;63419;42.262;12.210;2023-05-02T15:01:57;6.95;;;1.77;;
74867;SDS011;63419;42.262;12.210;2023-05-02T15:04:24;5.47;;;1.65;;
74867;SDS011;63419;42.262;12.210;2023-05-02T15:06:52;4.25;;;1.25;;
74867;SDS011;63419;42.262;12.210;2023-05-02T15:09:20;5.93;;;1.67;;
74867;SDS011;63419;42.262;12.210;2023-05-02T15:11:48;5.90;;;1.80;;
74867;SDS011;63419;42.262;12.210;2023-05-02T15:14:15;5.15;;;1.85;;
74867;SDS011;63419;42.262;12.210;2023-05-02T15:16:42;4.00;;;1.50;;
74867;SDS011;63419;42.262;12.210;2023-05-02T15:19:10;5.78;;;1.58;;
74867;SDS011;63419;42.262;12.210;2023-05-02T15:24:04;6.43;;;1.65;;
74867;SDS011;63419;42.262;12.210;2023-05-02T15:26:32;5.38;;;1.90;;
74867;SDS011;63419;42.262;12.210;2023-05-02T15:29:00;4.03;;;1.30;;
74867;SDS011;63419;42.262;12.210;2023-05-02T15:33:54;4.57;;;1.42;;
74867;SDS011;63419;42.262;12.210;2023-05-02T15:36:24;5.38;;;1.98;;
74867;SDS011;63419;42.262;12.210;2023-05-02T15:38:55;4.38;;;1.30;;
74867;SDS011;63419;42.262;12.210;2023-05-02T15:41:25;2.95;;;0.90;;
74867;SDS011;63419;42.262;12.210;2023-05-02T15:43:52;4.80;;;1.40;;
74867;SDS011;63419;42.262;12.210;2023-05-02T15:48:47;4.32;;;1.67;;
74867;SDS011;63419;42.262;12.210;2023-05-02T15:51:15;4.40;;;1.77;;
74867;SDS011;63419;42.262;12.210;2023-05-02T15:53:42;5.63;;;2.00;;
74867;SDS011;63419;42.262;12.210;2023-05-02T15:56:12;6.18;;;2.22;;
74867;SDS011;63419;42.262;12.210;2023-05-02T16:01:08;8.77;;;2.92;;
74867;SDS011;63419;42.262;12.210;2023-05-02T16:06:02;10.02;;;4.20;;
74867;SDS011;63419;42.262;12.210;2023-05-02T16:08:32;8.27;;;2.33;;
74867;SDS011;63419;42.262;12.210;2023-05-02T16:10:59;7.15;;;2.67;;
74867;SDS011;63419;42.262;12.210;2023-05-02T16:13:27;6.10;;;3.13;;
74867;SDS011;63419;42.262;12.210;2023-05-02T16:15:54;7.03;;;2.97;;
74867;SDS011;63419;42.262;12.210;2023-05-02T16:18:22;6.10;;;3.10;;
74867;SDS011;63419;42.262;12.210;2023-05-02T16:20:54;8.25;;;3.28;;
74867;SDS011;63419;42.262;12.210;2023-05-02T16:23:22;8.95;;;3.45;;
74867;SDS011;63419;42.262;12.210;2023-05-02T16:26:00;6.90;;;3.22;;
74867;SDS011;63419;42.262;12.210;2023-05-02T16:28:27;7.07;;;2.85;;
74867;SDS011;63419;42.262;12.210;2023-05-02T16:30:54;8.35;;;2.88;;
74867;SDS011;63419;42.262;12.210;2023-05-02T16:33:21;6.88;;;2.80;;
74867;SDS011;63419;42.262;12.210;2023-05-02T16:35:51;9.02;;;2.78;;
74867;SDS011;63419;42.262;12.210;2023-05-02T16:38:26;8.02;;;2.60;;
74867;SDS011;63419;42.262;12.210;2023-05-02T16:41:21;6.57;;;2.35;;
74867;SDS011;63419;42.262;12.210;2023-05-02T16:43:48;7.57;;;2.35;;
74867;SDS011;63419;42.262;12.210;2023-05-02T16:46:24;12.23;;;3.67;;
74867;SDS011;63419;42.262;12.210;2023-05-02T16:48:52;10.73;;;3.35;;
74867;SDS011;63419;42.262;12.210;2023-05-02T16:51:19;11.70;;;4.90;;
74867;SDS011;63419;42.262;12.210;2023-05-02T16:53:46;11.80;;;6.10;;
74867;SDS011;63419;42.262;12.210;2023-05-02T16:56:13;9.88;;;4.05;;